Time;durP1;ratioP1;P1;durP2;ratioP2;P2;SDS_P1;SDS_P2;PMS_P1;PMS_P2;Temp;Humidity;BMP_temperature;BMP_pressure;BME280_temperature;BME280_humidity;BME280_pressure;Samples;Min_cycle;Max_cycle;Signal;HPM_P1;HPM_P2
2022/03/27 00:02:13;;;;;;;0.40;0.40;;;12.10;99.90;;;;;;5026642;28;20279;-84
2022/03/27 00:04:39;;;;;;;1.60;0.53;;;12.20;99.90;;;;;;5027891;28;20229;-84
2022/03/27 00:07:04;;;;;;;0.87;0.87;;;12.20;99.90;;;;;;5026500;28;20196;-84
2022/03/27 00:09:30;;;;;;;1.53;0.80;;;12.10;99.90;;;;;;5026076;28;20523;-84
2022/03/27 00:11:56;;;;;;;0.40;0.37;;;12.10;99.90;;;;;;5029400;28;20194;-84
2022/03/27 00:14:21;;;;;;;1.80;1.03;;;12.10;99.90;;;;;;5024437;28;20265;-84
2022/03/27 00:16:47;;;;;;;0.50;0.43;;;12.00;99.90;;;;;;5024567;28;20265;-85
2022/03/27 00:19:12;;;;;;;1.30;1.20;;;12.00;99.90;;;;;;5025011;28;20189;-84
2022/03/27 00:21:40;;;;;;;0.77;0.70;;;12.00;99.90;;;;;;5025766;28;20269;-85
2022/03/27 00:24:06;;;;;;;0.13;0.13;;;12.00;99.90;;;;;;5029067;28;20206;-84
2022/03/27 00:26:31;;;;;;;1.47;1.10;;;12.10;99.90;;;;;;5027828;28;20267;-85
2022/03/27 00:28:57;;;;;;;3.00;0.30;;;12.10;99.90;;;;;;5024044;28;20190;-85
2022/03/27 00:31:22;;;;;;;1.33;0.80;;;12.00;99.90;;;;;;5026006;28;20633;-84
2022/03/27 00:33:48;;;;;;;1.23;0.50;;;12.00;99.90;;;;;;5026208;28;20186;-84
2022/03/27 00:36:15;;;;;;;0.30;0.30;;;11.90;99.90;;;;;;5025601;28;20308;-84
2022/03/27 00:38:45;;;;;;;3.03;0.93;;;11.80;99.90;;;;;;5025705;28;20179;-85
2022/03/27 00:41:12;;;;;;;0.63;0.63;;;11.70;99.90;;;;;;5036032;28;20192;-84
2022/03/27 00:43:39;;;;;;;1.30;0.97;;;11.50;99.90;;;;;;5026651;28;20184;-83
2022/03/27 00:46:06;;;;;;;1.53;1.43;;;11.50;99.90;;;;;;5025627;28;20204;-84
2022/03/27 00:48:34;;;;;;;1.47;0.80;;;11.50;99.90;;;;;;5026648;28;20183;-84
2022/03/27 00:51:00;;;;;;;0.50;0.50;;;11.40;99.90;;;;;;5026376;28;20191;-84
2022/03/27 00:53:25;;;;;;;1.03;0.50;;;11.40;99.90;;;;;;5023916;28;20200;-85
2022/03/27 00:55:51;;;;;;;0.43;0.43;;;11.30;99.90;;;;;;5025298;28;20252;-84
2022/03/27 00:58:17;;;;;;;0.60;0.47;;;11.30;99.90;;;;;;5023587;28;20233;-83
2022/03/27 01:00:50;;;;;;;1.00;0.87;;;11.10;99.90;;;;;;5026580;28;20782;-84
2022/03/27 01:03:18;;;;;;;0.63;0.40;;;11.00;99.90;;;;;;5025636;28;20640;-83
2022/03/27 01:05:45;;;;;;;1.40;0.80;;;10.90;99.90;;;;;;5023658;28;20394;-85
2022/03/27 01:08:12;;;;;;;0.40;0.40;;;10.70;99.90;;;;;;5025725;28;20186;-85
2022/03/27 01:10:40;;;;;;;0.73;0.70;;;10.60;99.90;;;;;;5034208;28;20186;-84
2022/03/27 01:13:18;;;;;;;0.60;0.60;;;10.50;99.90;;;;;;5025000;28;20190;-84
2022/03/27 01:15:53;;;;;;;1.13;0.77;;;10.50;99.90;;;;;;5023330;28;20229;-85
2022/03/27 01:18:19;;;;;;;2.40;0.77;;;10.60;99.90;;;;;;5025242;28;20178;-85
2022/03/27 01:20:45;;;;;;;0.47;0.40;;;10.60;99.90;;;;;;5025927;28;20236;-85
2022/03/27 01:23:15;;;;;;;0.73;0.70;;;10.60;99.90;;;;;;5026125;28;20189;-85
2022/03/27 01:25:44;;;;;;;1.90;0.70;;;10.60;99.90;;;;;;5023636;28;20241;-85
2022/03/27 01:28:12;;;;;;;2.37;1.13;;;10.60;99.90;;;;;;5024274;28;20194;-85
2022/03/27 01:30:38;;;;;;;0.47;0.47;;;10.50;99.90;;;;;;5023737;28;20190;-83
2022/03/27 01:33:05;;;;;;;1.43;1.30;;;10.60;99.90;;;;;;5026128;28;20225;-85
2022/03/27 01:35:32;;;;;;;0.50;0.50;;;10.60;99.90;;;;;;5024695;28;21703;-84
2022/03/27 01:37:57;;;;;;;0.60;0.60;;;10.50;99.90;;;;;;5024247;28;20269;-84
2022/03/27 01:40:23;;;;;;;0.70;0.70;;;10.50;99.90;;;;;;5024054;28;20273;-84
2022/03/27 01:42:52;;;;;;;1.63;1.43;;;10.50;99.90;;;;;;5026420;28;20194;-84
2022/03/27 01:45:18;;;;;;;1.87;1.20;;;10.30;99.90;;;;;;5023058;28;20367;-84
2022/03/27 01:47:44;;;;;;;0.47;0.47;;;10.30;99.90;;;;;;5023738;28;20656;-84
2022/03/27 01:50:10;;;;;;;0.40;0.40;;;10.30;99.90;;;;;;5025919;28;20196;-84
2022/03/27 01:52:35;;;;;;;0.80;0.80;;;10.20;99.90;;;;;;5023971;28;20280;-84
2022/03/27 01:55:02;;;;;;;0.93;0.93;;;10.20;99.90;;;;;;5024243;28;20231;-84
2022/03/27 01:57:28;;;;;;;0.70;0.40;;;10.20;99.90;;;;;;5023019;28;20187;-84
2022/03/27 01:59:53;;;;;;;0.60;0.60;;;10.10;99.90;;;;;;5025737;28;20388;-84
2022/03/27 02:02:24;;;;;;;1.37;1.33;;;10.10;99.90;;;;;;5022851;28;20220;-84
2022/03/27 02:04:53;;;;;;;0.93;0.83;;;10.20;99.90;;;;;;5023005;28;20210;-85
2022/03/27 02:07:22;;;;;;;0.70;0.70;;;10.20;99.90;;;;;;5021659;28;20598;-85
2022/03/27 02:09:48;;;;;;;1.27;0.97;;;10.20;99.90;;;;;;5023567;28;20628;-85
2022/03/27 02:12:13;;;;;;;0.67;0.67;;;10.10;99.90;;;;;;5022795;28;20917;-84
2022/03/27 02:14:39;;;;;;;2.07;0.80;;;10.20;99.90;;;;;;5023748;28;20225;-85
2022/03/27 02:17:05;;;;;;;1.50;1.30;;;10.20;99.90;;;;;;5023974;28;20717;-84
2022/03/27 02:19:31;;;;;;;0.60;0.57;;;10.20;99.90;;;;;;5022762;28;20180;-85
2022/03/27 02:21:56;;;;;;;0.50;0.50;;;10.20;99.90;;;;;;5023247;28;20178;-85
2022/03/27 02:24:22;;;;;;;4.70;0.47;;;10.30;99.90;;;;;;5022319;28;20542;-84
2022/03/27 02:26:50;;;;;;;0.67;0.67;;;10.30;99.90;;;;;;5023518;28;20561;-85
2022/03/27 02:29:16;;;;;;;1.07;1.07;;;10.20;99.90;;;;;;5022763;28;20195;-84
2022/03/27 02:31:43;;;;;;;0.97;0.87;;;10.20;99.90;;;;;;5023573;28;20198;-83
2022/03/27 02:34:09;;;;;;;2.27;0.53;;;10.30;99.90;;;;;;5022360;28;20214;-84
2022/03/27 02:36:35;;;;;;;0.87;0.87;;;10.20;99.90;;;;;;5022077;28;20272;-84
2022/03/27 02:39:01;;;;;;;0.23;0.23;;;10.30;99.90;;;;;;5022970;28;20244;-84
2022/03/27 02:41:26;;;;;;;1.07;0.53;;;10.30;99.90;;;;;;5022349;28;20209;-84
2022/03/27 02:43:52;;;;;;;1.70;0.40;;;10.30;99.90;;;;;;5023629;28;20178;-84
2022/03/27 02:46:18;;;;;;;0.47;0.47;;;10.30;99.90;;;;;;5022867;28;20655;-85
2022/03/27 02:48:43;;;;;;;0.67;0.67;;;10.20;99.90;;;;;;5022607;28;20195;-83
2022/03/27 02:51:09;;;;;;;0.40;0.40;;;10.20;99.90;;;;;;5023090;28;20191;-84
2022/03/27 02:53:34;;;;;;;0.50;0.50;;;10.30;99.90;;;;;;5021691;28;20194;-84
2022/03/27 02:56:00;;;;;;;0.50;0.50;;;10.30;99.90;;;;;;5023254;28;20217;-84
2022/03/27 02:58:26;;;;;;;2.67;0.90;;;10.30;99.90;;;;;;5023956;28;20274;-85
2022/03/27 03:00:52;;;;;;;2.20;0.83;;;10.30;99.90;;;;;;5023291;28;20705;-84
2022/03/27 03:03:18;;;;;;;0.50;0.50;;;10.30;99.90;;;;;;5023042;28;20272;-85
2022/03/27 03:05:44;;;;;;;1.17;0.80;;;10.20;99.90;;;;;;5021224;28;20279;-84
2022/03/27 03:08:11;;;;;;;0.87;0.87;;;10.10;99.90;;;;;;5022341;28;21187;-84
2022/03/27 03:10:40;;;;;;;0.30;0.30;;;10.10;99.90;;;;;;5020636;28;20277;-84
2022/03/27 03:13:10;;;;;;;0.60;0.60;;;10.10;99.90;;;;;;5023077;28;20870;-84
2022/03/27 03:15:40;;;;;;;0.40;0.40;;;10.10;99.90;;;;;;5022256;28;20213;-84
2022/03/27 03:18:11;;;;;;;0.77;0.70;;;10.10;99.90;;;;;;5025429;28;20651;-84
2022/03/27 03:20:38;;;;;;;0.60;0.60;;;10.10;99.90;;;;;;5025245;28;20273;-84
2022/03/27 03:23:03;;;;;;;0.40;0.40;;;10.10;99.90;;;;;;5026544;28;20194;-84
2022/03/27 03:25:29;;;;;;;2.27;0.83;;;10.10;99.90;;;;;;5025621;28;20264;-84
2022/03/27 03:27:56;;;;;;;0.40;0.40;;;10.10;99.90;;;;;;5025619;28;20186;-84
2022/03/27 03:30:22;;;;;;;0.60;0.60;;;10.10;99.90;;;;;;5025594;28;21170;-85
2022/03/27 03:32:48;;;;;;;0.70;0.57;;;10.10;99.90;;;;;;5044080;28;20190;-84
2022/03/27 03:35:14;;;;;;;0.50;0.50;;;10.00;99.90;;;;;;5027024;28;20275;-84
2022/03/27 03:37:40;;;;;;;1.40;0.53;;;9.90;99.90;;;;;;5025820;28;20190;-84
2022/03/27 03:40:07;;;;;;;0.50;0.50;;;9.90;99.90;;;;;;5026197;28;20191;-84
2022/03/27 03:42:36;;;;;;;0.23;0.23;;;9.80;99.90;;;;;;5025091;28;21162;-85
2022/03/27 03:45:04;;;;;;;0.47;0.47;;;9.90;99.90;;;;;;5027112;28;20206;-85
2022/03/27 03:47:29;;;;;;;0.67;0.67;;;9.90;99.90;;;;;;5025703;28;20194;-85
2022/03/27 03:49:55;;;;;;;0.77;0.73;;;10.00;99.90;;;;;;5026518;28;20200;-84
2022/03/27 03:52:21;;;;;;;0.63;0.63;;;10.00;99.90;;;;;;5026484;28;20222;-85
2022/03/27 03:54:47;;;;;;;0.57;0.50;;;10.00;99.90;;;;;;5025742;28;20202;-84
2022/03/27 03:57:13;;;;;;;0.50;0.50;;;10.10;99.90;;;;;;5027541;28;20183;-85
2022/03/27 03:59:39;;;;;;;0.60;0.60;;;10.10;99.90;;;;;;5025304;28;20186;-84
2022/03/27 04:02:09;;;;;;;0.83;0.83;;;10.10;99.90;;;;;;5025999;28;20186;-83
2022/03/27 04:04:35;;;;;;;1.13;1.13;;;10.10;99.90;;;;;;5026632;28;20226;-84
2022/03/27 04:07:04;;;;;;;0.33;0.33;;;10.20;99.90;;;;;;5025934;28;20202;-84
2022/03/27 04:09:29;;;;;;;1.10;1.00;;;10.10;99.90;;;;;;5024055;28;20202;-85
2022/03/27 04:11:55;;;;;;;0.80;0.53;;;10.00;99.90;;;;;;5026299;28;20186;-84
2022/03/27 04:14:21;;;;;;;1.70;1.07;;;9.90;99.90;;;;;;5025099;28;20214;-85
2022/03/27 04:16:48;;;;;;;1.07;1.07;;;9.80;99.90;;;;;;5024280;28;20210;-84
2022/03/27 04:19:13;;;;;;;2.73;0.57;;;9.80;99.90;;;;;;5025970;28;20197;-85
2022/03/27 04:21:39;;;;;;;0.10;0.10;;;9.70;99.90;;;;;;5023345;28;20186;-85
2022/03/27 04:24:06;;;;;;;0.30;0.30;;;9.60;99.90;;;;;;5025647;28;20206;-84
2022/03/27 04:26:32;;;;;;;0.87;0.87;;;9.50;99.90;;;;;;5023435;28;20263;-85
2022/03/27 04:28:58;;;;;;;2.13;0.63;;;9.40;99.90;;;;;;5023095;28;20667;-85
2022/03/27 04:31:24;;;;;;;1.10;0.90;;;9.30;99.90;;;;;;5023024;28;20214;-85
2022/03/27 04:33:50;;;;;;;0.33;0.33;;;9.30;99.90;;;;;;5025604;28;20559;-84
2022/03/27 04:36:15;;;;;;;0.70;0.70;;;9.20;99.90;;;;;;5025179;28;20684;-84
2022/03/27 04:38:41;;;;;;;1.90;0.67;;;9.30;99.90;;;;;;5024322;28;20186;-84
2022/03/27 04:41:06;;;;;;;1.37;1.13;;;9.20;99.90;;;;;;5026799;28;20195;-84
2022/03/27 04:43:32;;;;;;;1.20;1.20;;;9.30;99.90;;;;;;5024703;28;21045;-84
2022/03/27 04:45:58;;;;;;;1.17;0.70;;;9.20;99.90;;;;;;5024560;28;20206;-84
2022/03/27 04:48:25;;;;;;;0.73;0.70;;;9.10;99.90;;;;;;5024774;28;20207;-85
2022/03/27 04:50:51;;;;;;;0.93;0.93;;;8.90;99.90;;;;;;5022293;28;20198;-85
2022/03/27 04:53:17;;;;;;;1.20;1.20;;;9.00;99.90;;;;;;5023240;28;20207;-84
2022/03/27 04:55:43;;;;;;;1.03;0.93;;;8.90;99.90;;;;;;5023981;28;20214;-84
2022/03/27 04:58:11;;;;;;;0.27;0.20;;;8.90;99.90;;;;;;5026663;28;20197;-85
2022/03/27 05:00:37;;;;;;;2.67;1.07;;;8.90;99.90;;;;;;5026549;28;20189;-85
2022/03/27 05:03:03;;;;;;;1.73;0.87;;;8.90;99.90;;;;;;5023898;28;20193;-84
2022/03/27 05:05:30;;;;;;;1.60;0.40;;;8.90;99.90;;;;;;5025936;28;20214;-84
2022/03/27 05:07:56;;;;;;;1.13;0.70;;;8.80;99.90;;;;;;5025626;28;20200;-84
2022/03/27 05:10:22;;;;;;;0.87;0.87;;;8.80;99.90;;;;;;5026047;28;20190;-84
2022/03/27 05:12:47;;;;;;;0.80;0.80;;;8.90;99.90;;;;;;5022368;28;20552;-84
2022/03/27 05:15:13;;;;;;;0.97;0.80;;;8.90;99.90;;;;;;5026224;28;20209;-85
2022/03/27 05:17:54;;;;;;;2.03;0.90;;;8.90;99.90;;;;;;5022337;28;20186;-83
2022/03/27 05:20:21;;;;;;;0.40;0.40;;;8.90;99.90;;;;;;5024793;28;20189;-84
2022/03/27 05:22:47;;;;;;;0.27;0.27;;;8.90;99.90;;;;;;5023629;28;20193;-84
2022/03/27 05:25:15;;;;;;;2.70;0.77;;;8.90;99.90;;;;;;5026059;28;20206;-84
2022/03/27 05:27:46;;;;;;;0.60;0.33;;;8.90;99.90;;;;;;5024137;28;20189;-84
2022/03/27 05:30:12;;;;;;;1.37;1.27;;;8.90;99.90;;;;;;5026571;28;20186;-83
2022/03/27 05:32:37;;;;;;;0.60;0.60;;;8.90;99.90;;;;;;5023552;28;20559;-84
2022/03/27 05:35:03;;;;;;;0.70;0.33;;;9.00;99.90;;;;;;5024505;28;20233;-85
2022/03/27 05:37:29;;;;;;;0.50;0.50;;;9.00;99.90;;;;;;5024237;28;20190;-84
2022/03/27 05:39:55;;;;;;;1.63;0.97;;;9.00;99.90;;;;;;5024701;28;20276;-82
2022/03/27 05:42:20;;;;;;;1.60;0.87;;;9.00;99.90;;;;;;5026099;28;20550;-81
2022/03/27 05:44:46;;;;;;;0.57;0.37;;;9.00;99.90;;;;;;5027474;28;20634;-81
2022/03/27 05:47:11;;;;;;;1.87;0.60;;;9.20;99.90;;;;;;5026376;28;20293;-80
2022/03/27 05:49:37;;;;;;;1.00;0.77;;;9.20;99.90;;;;;;5026512;28;20199;-80
2022/03/27 05:52:03;;;;;;;0.27;0.27;;;9.30;99.90;;;;;;5025085;28;20292;-80
2022/03/27 05:54:28;;;;;;;1.77;0.90;;;9.30;99.90;;;;;;5023352;28;20216;-82
2022/03/27 05:56:54;;;;;;;0.40;0.40;;;9.40;99.90;;;;;;5024627;28;20209;-81
2022/03/27 05:59:19;;;;;;;0.30;0.30;;;9.50;99.90;;;;;;5026735;28;20186;-82
2022/03/27 06:01:45;;;;;;;1.17;0.97;;;9.60;99.90;;;;;;5027364;28;20197;-81
2022/03/27 06:04:10;;;;;;;0.60;0.60;;;9.60;99.90;;;;;;5025504;28;20429;-80
2022/03/27 06:06:37;;;;;;;1.20;0.43;;;9.70;99.90;;;;;;5026362;28;20198;-81
2022/03/27 06:09:02;;;;;;;0.70;0.70;;;9.80;99.90;;;;;;5023227;28;20209;-81
2022/03/27 06:11:28;;;;;;;3.73;0.87;;;9.80;99.90;;;;;;5024453;28;20198;-80
2022/03/27 06:13:54;;;;;;;0.50;0.50;;;10.00;99.90;;;;;;5024913;28;20186;-83
2022/03/27 06:16:20;;;;;;;0.97;0.73;;;10.00;99.90;;;;;;5024555;28;20224;-82
2022/03/27 06:18:47;;;;;;;0.63;0.37;;;10.10;99.90;;;;;;5020825;28;20319;-82
2022/03/27 06:21:13;;;;;;;0.40;0.40;;;10.20;99.90;;;;;;5031551;28;20190;-81
2022/03/27 06:23:38;;;;;;;1.07;1.00;;;10.30;99.90;;;;;;5021269;28;20699;-82
2022/03/27 06:26:04;;;;;;;1.23;0.70;;;10.40;99.90;;;;;;5024314;28;20194;-82
2022/03/27 06:28:29;;;;;;;1.20;1.00;;;10.60;99.90;;;;;;5026341;28;20194;-82
2022/03/27 06:30:55;;;;;;;0.43;0.43;;;10.70;99.90;;;;;;5025889;28;20193;-82
2022/03/27 06:33:20;;;;;;;0.63;0.63;;;10.80;99.90;;;;;;5025058;28;20278;-82
2022/03/27 06:35:46;;;;;;;1.47;1.27;;;10.90;99.90;;;;;;5021395;28;20623;-82
2022/03/27 06:38:11;;;;;;;0.77;0.77;;;10.90;99.90;;;;;;5026690;28;20643;-82
2022/03/27 06:40:37;;;;;;;1.13;1.03;;;11.10;99.90;;;;;;5029499;28;20187;-82
2022/03/27 06:43:04;;;;;;;0.50;0.50;;;11.20;99.90;;;;;;5028668;28;20251;-82
2022/03/27 06:45:29;;;;;;;0.53;0.50;;;11.20;99.90;;;;;;5029179;28;20233;-82
2022/03/27 06:47:55;;;;;;;0.40;0.40;;;11.40;99.90;;;;;;5029463;28;20198;-82
2022/03/27 06:50:22;;;;;;;0.80;0.80;;;11.50;99.90;;;;;;5028561;28;20186;-82
2022/03/27 06:52:49;;;;;;;0.70;0.70;;;11.70;99.90;;;;;;5026265;28;20202;-82
2022/03/27 06:55:16;;;;;;;0.93;0.73;;;11.90;99.90;;;;;;5029541;28;20253;-82
2022/03/27 06:57:42;;;;;;;2.37;1.33;;;12.00;99.90;;;;;;5029688;28;20190;-82
2022/03/27 07:03:05;;;;;;;1.03;0.87;;;12.30;99.90;;;;;;5029116;28;20206;-82
2022/03/27 07:05:39;;;;;;;1.23;1.00;;;12.30;99.90;;;;;;5028541;28;20224;-82
2022/03/27 07:08:06;;;;;;;0.50;0.50;;;12.40;99.90;;;;;;5028083;28;20194;-82
2022/03/27 07:10:32;;;;;;;0.73;0.73;;;12.50;99.90;;;;;;5028755;28;20723;-82
2022/03/27 07:12:58;;;;;;;1.53;0.90;;;12.70;99.90;;;;;;5028066;28;20210;-82
2022/03/27 07:15:24;;;;;;;0.50;0.50;;;12.90;99.90;;;;;;5028446;28;20216;-82
2022/03/27 07:17:51;;;;;;;1.23;0.73;;;13.00;99.90;;;;;;5026099;28;20205;-82
2022/03/27 07:20:20;;;;;;;1.70;0.97;;;13.20;99.90;;;;;;5019129;28;20730;-82
2022/03/27 07:22:46;;;;;;;1.40;1.20;;;13.40;99.90;;;;;;5019077;28;20211;-81
2022/03/27 07:25:13;;;;;;;1.43;0.73;;;13.50;99.90;;;;;;5017705;28;20584;-81
2022/03/27 07:27:39;;;;;;;0.77;0.77;;;13.50;99.90;;;;;;5023820;28;20262;-82
2022/03/27 07:30:06;;;;;;;1.93;1.83;;;13.60;99.90;;;;;;5023724;28;20190;-82
2022/03/27 07:32:32;;;;;;;1.60;0.67;;;13.60;99.90;;;;;;5023287;28;20249;-82
2022/03/27 07:34:58;;;;;;;1.30;1.20;;;13.60;99.90;;;;;;5023025;28;20693;-81
2022/03/27 07:37:24;;;;;;;2.00;0.70;;;13.60;99.90;;;;;;5023724;28;20188;-82
2022/03/27 07:39:50;;;;;;;1.47;0.57;;;13.80;99.90;;;;;;5023822;28;20195;-82
2022/03/27 07:42:15;;;;;;;0.43;0.43;;;13.90;99.90;;;;;;5024202;28;20180;-82
2022/03/27 07:44:41;;;;;;;2.10;2.00;;;14.10;99.90;;;;;;5023781;28;20207;-82
2022/03/27 07:47:07;;;;;;;0.70;0.70;;;14.30;99.90;;;;;;5021258;28;20199;-82
2022/03/27 07:49:33;;;;;;;0.50;0.50;;;14.40;99.90;;;;;;5024446;28;20311;-82
2022/03/27 07:52:05;;;;;;;0.80;0.47;;;14.60;99.90;;;;;;5023923;28;20194;-82
2022/03/27 07:54:31;;;;;;;7.20;1.23;;;14.80;99.90;;;;;;5023448;28;20308;-82
2022/03/27 07:56:56;;;;;;;0.70;0.70;;;15.00;99.90;;;;;;5028169;28;20316;-82
2022/03/27 07:59:22;;;;;;;1.00;0.90;;;15.20;99.90;;;;;;5024054;28;20641;-82
2022/03/27 08:01:48;;;;;;;2.03;1.30;;;15.20;99.90;;;;;;5023383;28;20231;-82
2022/03/27 08:04:14;;;;;;;0.90;0.70;;;15.40;99.90;;;;;;5025410;28;20210;-82
2022/03/27 08:06:39;;;;;;;0.33;0.33;;;15.40;99.90;;;;;;5026233;28;20221;-82
2022/03/27 08:09:06;;;;;;;1.00;1.00;;;15.60;99.90;;;;;;5022094;28;20224;-82
2022/03/27 08:11:33;;;;;;;1.13;0.83;;;15.70;99.90;;;;;;5025727;28;20240;-81
2022/03/27 08:13:58;;;;;;;1.73;1.30;;;15.90;99.90;;;;;;5024929;28;20217;-81
2022/03/27 08:16:26;;;;;;;1.27;0.97;;;16.20;99.90;;;;;;5025779;28;20313;-82
2022/03/27 08:18:51;;;;;;;6.23;0.97;;;16.30;99.90;;;;;;5013714;28;20198;-82
2022/03/27 08:21:17;;;;;;;1.17;0.97;;;16.20;99.90;;;;;;5022662;28;20194;-84
2022/03/27 08:23:42;;;;;;;1.27;1.07;;;16.40;99.90;;;;;;5020185;28;20269;-84
2022/03/27 08:28:52;;;;;;;2.97;0.90;;;16.00;99.90;;;;;;5024757;28;20185;-84
2022/03/27 08:31:18;;;;;;;0.80;0.80;;;16.40;99.90;;;;;;5024207;28;20191;-84
2022/03/27 08:33:44;;;;;;;1.80;0.93;;;16.70;99.90;;;;;;5023287;28;20190;-84
2022/03/27 08:36:10;;;;;;;2.67;0.60;;;16.90;99.90;;;;;;5020412;28;20206;-82
2022/03/27 08:38:35;;;;;;;0.93;0.93;;;17.10;99.90;;;;;;5023510;28;20193;-82
2022/03/27 08:41:02;;;;;;;2.07;1.30;;;17.20;99.90;;;;;;5024490;28;20183;-82
2022/03/27 08:43:32;;;;;;;1.20;1.17;;;17.30;99.90;;;;;;5027440;28;20269;-82
2022/03/27 08:45:58;;;;;;;3.00;1.70;;;16.90;99.90;;;;;;5026187;28;20279;-82
2022/03/27 08:48:29;;;;;;;2.53;2.03;;;16.60;99.90;;;;;;5026567;28;20556;-82
2022/03/27 08:51:25;;;;;;;1.47;1.37;;;16.20;99.90;;;;;;5024741;28;20186;-82
2022/03/27 08:54:00;;;;;;;1.93;1.27;;;16.40;99.90;;;;;;5022799;28;20182;-82
2022/03/27 08:56:29;;;;;;;4.60;1.60;;;16.40;99.90;;;;;;5025916;28;20202;-82
2022/03/27 08:58:58;;;;;;;2.13;1.33;;;17.10;99.90;;;;;;5024202;28;20183;-82
2022/03/27 09:01:24;;;;;;;1.70;1.60;;;17.20;99.90;;;;;;5023955;28;20183;-82
2022/03/27 09:03:50;;;;;;;1.47;1.37;;;16.70;99.90;;;;;;5015814;28;20198;-82
2022/03/27 09:06:15;;;;;;;1.07;1.07;;;16.70;99.90;;;;;;5020686;28;20199;-82
2022/03/27 09:08:41;;;;;;;1.00;0.83;;;17.20;99.90;;;;;;5020987;28;20662;-82
2022/03/27 09:11:13;;;;;;;1.90;1.23;;;17.50;99.90;;;;;;5020672;28;20234;-86
2022/03/27 09:13:39;;;;;;;1.27;1.23;;;17.60;99.90;;;;;;5024318;28;20190;-85
2022/03/27 09:16:08;;;;;;;3.77;1.80;;;18.00;99.90;;;;;;5021875;28;20214;-83
2022/03/27 09:19:01;;;;;;;0.93;0.90;;;17.50;99.90;;;;;;5021441;28;20183;-81
2022/03/27 09:21:27;;;;;;;2.43;1.70;;;17.60;99.90;;;;;;5018483;28;20250;-83
2022/03/27 09:23:59;;;;;;;1.50;1.33;;;17.60;99.90;;;;;;5018285;28;20659;-82
2022/03/27 09:26:26;;;;;;;3.50;2.20;;;17.90;99.90;;;;;;5023211;28;20210;-82
2022/03/27 09:28:57;;;;;;;5.53;2.13;;;17.30;99.90;;;;;;5024158;28;20289;-82
2022/03/27 09:31:26;;;;;;;5.10;1.13;;;17.20;99.90;;;;;;5024846;28;20224;-82
2022/03/27 09:33:53;;;;;;;1.67;1.17;;;17.80;99.90;;;;;;5022805;28;20770;-82
2022/03/27 09:36:32;;;;;;;3.33;1.17;;;17.80;99.90;;;;;;5022588;28;20210;-82
2022/03/27 09:39:08;;;;;;;1.73;1.63;;;18.20;99.90;;;;;;5025506;28;20262;-82
2022/03/27 09:41:46;;;;;;;1.40;1.30;;;18.20;99.90;;;;;;5023766;28;20656;-82
2022/03/27 09:44:28;;;;;;;2.20;1.07;;;18.20;99.90;;;;;;5023852;28;20206;-82
2022/03/27 09:47:04;;;;;;;1.07;0.97;;;18.30;99.90;;;;;;5023310;28;20211;-82
2022/03/27 09:49:35;;;;;;;3.93;1.87;;;17.90;99.90;;;;;;5022425;28;20189;-82
2022/03/27 09:52:05;;;;;;;1.53;1.43;;;18.00;99.90;;;;;;5019774;28;20182;-81
2022/03/27 09:54:43;;;;;;;1.33;1.20;;;17.90;99.90;;;;;;5020004;28;20206;-82
2022/03/27 09:57:36;;;;;;;0.87;0.83;;;17.70;99.90;;;;;;5018339;28;20197;-82
2022/03/27 10:00:11;;;;;;;0.90;0.90;;;18.00;99.90;;;;;;5015310;28;20196;-83
2022/03/27 10:02:37;;;;;;;4.33;2.27;;;17.80;99.90;;;;;;5025172;28;20249;-83
2022/03/27 10:05:11;;;;;;;2.70;2.00;;;17.60;99.90;;;;;;5025286;28;20275;-83
2022/03/27 10:07:40;;;;;;;1.03;0.67;;;17.80;99.90;;;;;;5025091;28;20190;-83
2022/03/27 10:10:08;;;;;;;4.03;1.70;;;18.50;99.90;;;;;;5025937;28;20194;-81
2022/03/27 10:12:37;;;;;;;2.50;2.00;;;18.50;99.90;;;;;;5026813;28;20198;-82
2022/03/27 10:15:05;;;;;;;8.67;1.07;;;18.10;99.90;;;;;;5024355;28;20210;-83
2022/03/27 10:17:33;;;;;;;2.63;2.13;;;18.00;99.90;;;;;;5024953;28;20186;-83
2022/03/27 10:20:08;;;;;;;1.13;0.93;;;18.10;99.90;;;;;;5026295;28;20223;-83
2022/03/27 10:22:39;;;;;;;1.30;1.20;;;18.50;99.90;;;;;;5027021;28;20189;-82
2022/03/27 10:25:08;;;;;;;2.00;1.53;;;18.60;99.90;;;;;;5025918;28;20206;-81
2022/03/27 10:27:35;;;;;;;1.40;1.30;;;19.10;99.90;;;;;;5023512;28;20264;-81
2022/03/27 10:30:02;;;;;;;1.60;1.50;;;19.40;99.90;;;;;;5023146;28;20255;-82
2022/03/27 10:32:29;;;;;;;2.00;1.23;;;19.20;99.90;;;;;;5026786;28;20244;-81
2022/03/27 10:35:02;;;;;;;2.60;1.33;;;19.40;99.90;;;;;;5024468;28;20224;-81
2022/03/27 10:38:02;;;;;;;1.63;1.53;;;19.40;99.90;;;;;;5023483;28;20267;-81
2022/03/27 10:40:38;;;;;;;6.50;3.20;;;19.20;99.90;;;;;;5025349;28;20193;-81
2022/03/27 10:43:24;;;;;;;1.90;1.20;;;18.50;99.90;;;;;;5017065;28;20632;-81
2022/03/27 10:46:15;;;;;;;2.77;2.00;;;18.50;99.90;;;;;;5021784;28;20229;-81
2022/03/27 10:48:42;;;;;;;2.70;1.90;;;18.60;99.90;;;;;;5014861;28;20183;-81
2022/03/27 10:51:28;;;;;;;0.90;0.90;;;18.40;99.90;;;;;;5019948;28;20204;-81
2022/03/27 10:54:07;;;;;;;3.60;1.83;;;18.80;99.90;;;;;;5016403;28;20194;-81
2022/03/27 10:56:35;;;;;;;1.60;1.50;;;19.00;99.90;;;;;;5022823;28;20549;-81
2022/03/27 10:59:21;;;;;;;3.37;1.47;;;19.20;99.90;;;;;;5023227;28;20664;-81
2022/03/27 11:01:48;;;;;;;1.50;1.40;;;19.00;99.90;;;;;;5019840;28;20307;-81
2022/03/27 11:04:18;;;;;;;3.17;1.63;;;18.70;99.90;;;;;;5025869;28;20198;-81
2022/03/27 11:06:46;;;;;;;1.17;0.73;;;18.70;99.90;;;;;;5023094;28;20197;-81
2022/03/27 11:09:30;;;;;;;0.73;0.67;;;19.20;99.90;;;;;;5020984;28;20326;-81
2022/03/27 11:11:57;;;;;;;2.33;1.77;;;19.10;99.90;;;;;;5020486;28;20865;-81
2022/03/27 11:14:51;;;;;;;2.50;1.43;;;19.50;99.90;;;;;;5021460;28;20258;-81
2022/03/27 11:17:28;;;;;;;0.70;0.70;;;19.80;99.90;;;;;;5022406;28;20208;-82
2022/03/27 11:19:54;;;;;;;1.17;0.50;;;20.30;99.90;;;;;;5019339;28;20182;-81
2022/03/27 11:22:43;;;;;;;3.30;1.97;;;20.60;99.90;;;;;;5022226;28;20188;-81
2022/03/27 11:25:30;;;;;;;2.13;1.93;;;20.20;99.90;;;;;;5021704;28;20229;-82
2022/03/27 11:28:17;;;;;;;1.53;1.40;;;20.40;99.90;;;;;;5026183;28;20183;-81
2022/03/27 11:30:52;;;;;;;2.63;0.80;;;20.60;99.90;;;;;;5022619;28;20284;-81
2022/03/27 11:33:26;;;;;;;1.73;1.37;;;20.80;99.90;;;;;;5020619;28;20557;-81
2022/03/27 11:36:04;;;;;;;1.07;1.07;;;20.50;99.90;;;;;;5019623;28;20209;-81
2022/03/27 11:38:34;;;;;;;2.20;0.97;;;20.80;99.90;;;;;;5024329;28;20186;-81
2022/03/27 11:41:29;;;;;;;1.23;1.20;;;21.00;99.90;;;;;;5028169;28;20182;-81
2022/03/27 11:44:16;;;;;;;1.10;1.07;;;21.20;99.90;;;;;;5025063;28;20285;-81
2022/03/27 11:46:44;;;;;;;1.10;0.90;;;21.20;99.90;;;;;;5027556;28;20182;-82
2022/03/27 11:49:11;;;;;;;1.20;1.10;;;21.20;99.90;;;;;;5026247;28;20695;-82
2022/03/27 11:51:36;;;;;;;0.73;0.63;;;20.70;99.90;;;;;;5028409;28;20179;-81
2022/03/27 11:54:02;;;;;;;1.30;1.30;;;21.00;99.90;;;;;;5023940;28;20376;-81
2022/03/27 11:56:28;;;;;;;0.60;0.60;;;20.80;99.90;;;;;;5025193;28;20387;-82
2022/03/27 11:59:05;;;;;;;2.53;1.10;;;21.10;99.90;;;;;;5024430;28;20708;-81
2022/03/27 12:01:31;;;;;;;1.10;1.10;;;21.30;99.90;;;;;;5025835;28;20266;-81
2022/03/27 12:03:58;;;;;;;1.03;0.80;;;21.00;99.90;;;;;;5024430;28;20202;-81
2022/03/27 12:06:28;;;;;;;2.30;1.87;;;21.00;99.90;;;;;;5025754;28;20208;-81
2022/03/27 12:08:55;;;;;;;1.93;1.10;;;20.90;99.90;;;;;;5024658;28;20730;-82
2022/03/27 12:11:26;;;;;;;2.63;1.20;;;20.40;99.90;;;;;;5025587;28;20186;-84
2022/03/27 12:13:52;;;;;;;0.47;0.47;;;20.80;99.90;;;;;;5025795;28;20737;-83
2022/03/27 12:16:23;;;;;;;1.07;1.07;;;21.20;99.90;;;;;;5024686;28;20206;-83
2022/03/27 12:18:50;;;;;;;2.10;1.13;;;21.20;99.90;;;;;;5026887;28;20262;-84
2022/03/27 12:21:20;;;;;;;1.33;1.10;;;20.90;99.90;;;;;;5025817;28;20260;-84
2022/03/27 12:23:56;;;;;;;1.80;1.70;;;20.80;99.90;;;;;;5024991;28;20612;-84
2022/03/27 12:32:05;;;;;;;0.90;0.90;;;21.20;99.90;;;;;;5026751;28;20217;-83
2022/03/27 12:34:33;;;;;;;1.40;1.30;;;20.80;99.90;;;;;;5025731;28;20232;-85
2022/03/27 12:37:09;;;;;;;0.70;0.70;;;20.90;99.90;;;;;;5023692;28;20209;-84
2022/03/27 12:39:58;;;;;;;0.70;0.70;;;21.10;99.90;;;;;;5040630;28;20202;-83
2022/03/27 12:42:32;;;;;;;0.43;0.43;;;21.40;99.90;;;;;;5026556;28;20178;-83
2022/03/27 12:45:29;;;;;;;1.30;1.10;;;21.70;99.90;;;;;;5027599;28;20190;-85
2022/03/27 12:48:18;;;;;;;1.20;1.10;;;21.50;99.90;;;;;;5031769;28;20182;-83
2022/03/27 12:50:49;;;;;;;2.00;1.67;;;20.60;99.90;;;;;;5032941;28;20201;-84
2022/03/27 12:53:20;;;;;;;1.23;1.13;;;20.80;99.90;;;;;;5032692;28;20178;-84
2022/03/27 12:55:53;;;;;;;0.60;0.60;;;21.00;99.90;;;;;;5034785;28;20796;-84
2022/03/27 12:58:32;;;;;;;1.17;0.97;;;21.20;99.90;;;;;;5033515;28;20221;-84
2022/03/27 13:01:16;;;;;;;1.50;1.07;;;20.80;99.90;;;;;;5033908;28;20178;-84
2022/03/27 13:04:08;;;;;;;1.43;1.33;;;20.40;99.90;;;;;;5032496;28;20174;-84
2022/03/27 13:06:51;;;;;;;2.37;1.07;;;20.80;99.90;;;;;;5029452;28;20202;-83
2022/03/27 13:09:22;;;;;;;1.53;0.97;;;21.00;99.90;;;;;;5028617;28;20276;-84